Flight Track Log - Related Links

Times and Time Zones

All times are in EDT time to prevent confusion due to time zone crossing. See the SWA1969 flight status page for this flight to view local times or setup timezone preferences in your user account.

Time Position Orientation Groundspeed Altitude Reporting Facility
EDT Latitude Longitude Course Direction KTS MPH feet Rate Location/Type
Mon 07:28:24 AM 32.8333 -96.8333 120° Southeast 151 174 1,700  Level Dallas / Fort Worth TRACON
Mon 07:29:55 AM 32.7878 -96.7414 120° Southeast 199 229 5,000 2,265 Climbing Fort Worth Center
Mon 07:30:55 AM 32.8481 -96.7211 16° North 158 182 7,400 2,950 Climbing Fort Worth Center
Mon 07:31:55 AM 32.9422 -96.7278 357° North 255 293 10,900 3,300 Climbing Fort Worth Center
Mon 07:32:55 AM 33.0175 -96.7742 333° Northwest 314 361 14,000 3,250 Climbing Fort Worth Center
Mon 07:33:55 AM 33.1181 -96.8256 337° Northwest 342 394 17,400 3,250 Climbing Fort Worth Center
Mon 07:34:55 AM 33.2119 -96.8547 345° North 371 427 20,500 3,050 Climbing Fort Worth Center
Mon 07:35:55 AM 33.3311 -96.8939 345° North 393 452 23,500 3,050 Climbing Fort Worth Center
Mon 07:36:55 AM 33.4314 -96.9256 345° North 405 466 26,600 1,750 Climbing Fort Worth Center
Mon 07:37:55 AM 33.5486 -96.9597 346° North 399 459 27,000 200 Climbing Fort Worth Center
Mon 07:38:55 AM 33.6550 -96.9942 345° North 394 453 27,000  Level Fort Worth Center
Mon 07:39:55 AM 33.7617 -97.0261 346° North 394 453 27,000  Level Fort Worth Center
Mon 07:40:55 AM 33.8681 -97.0608 345° North 394 453 27,000 -100 Level Fort Worth Center
Mon 07:41:55 AM 33.9747 -97.0928 346° North 394 453 26,800 -650 Descending Fort Worth Center
Mon 07:42:55 AM 34.0811 -97.1250 346° North 394 453 25,700 -950 Descending Fort Worth Center
Mon 07:43:55 AM 34.1689 -97.1600 342° North 382 440 24,900 -950 Descending Fort Worth Center
Mon 07:44:55 AM 34.2711 -97.1922 345° North 377 434 23,800 -1,000 Descending Fort Worth Center
Mon 07:45:55 AM 34.3736 -97.2222 346° North 377 434 22,900 -950 Descending Fort Worth Center
Mon 07:46:55 AM 34.4717 -97.2547 345° North 377 434 21,900 -1,200 Descending Fort Worth Center
Mon 07:47:55 AM 34.5697 -97.2850 346° North 367 422 20,500 -1,550 Descending Fort Worth Center
Mon 07:48:55 AM 34.6617 -97.3125 346° North 353 406 18,800 -2,122 Descending Fort Worth Center
Mon 07:49:17 AM 34.7011 -97.3225 348° North 339 390 17,600 -2,100 Descending Fort Worth Center
Mon 07:49:55 AM 34.7533 -97.3428 342° North 347 399 16,700 -1,818 Descending Fort Worth Center
Mon 07:50:23 AM 34.8097 -97.3578 348° North 346 398 15,600 -1,700 Descending Fort Worth Center
Mon 07:50:55 AM 34.8453 -97.3706 344° North 341 392 15,000 -1,672 Descending Fort Worth Center
Mon 07:51:24 AM 34.8994 -97.3883 345° North 340 391 13,900 -1,800 Descending Fort Worth Center
Mon 07:51:55 AM 34.9369 -97.3983 348° North 341 392 13,200 -1,869 Descending Fort Worth Center
Mon 07:52:25 AM 34.9911 -97.4111 349° North 332 382 12,000 -1,800 Descending Fort Worth Center
Mon 07:52:55 AM 35.0244 -97.4211 346° North 336 387 11,400 -1,600 Descending Fort Worth Center
Mon 07:53:25 AM 35.0789 -97.4364 347° North 320 368 10,400 -1,500 Descending Fort Worth Center
Mon 07:53:55 AM 35.1122 -97.4414 353° North 330 380 9,900 -1,574 Descending Fort Worth Center
Mon 07:54:26 AM 35.1622 -97.4517 350° North 301 346 8,800 -1,800 Descending Fort Worth Center
Mon 07:54:55 AM 35.1956 -97.4592 350° North 319 367 8,100 -1,800 Descending Fort Worth Center
Mon 07:55:26 AM 35.2436 -97.4719 348° North 298 343 7,000 -1,700 Descending Fort Worth Center
Mon 07:55:55 AM 35.2769 -97.4772 353° North 307 353 6,400 -984 Descending Fort Worth Center
Mon 07:56:27 AM 35.3250 -97.4872 350° North 293 337 6,000 -400 Descending Fort Worth Center
Mon 07:56:55 AM 35.3561 -97.4925 352° North 296 341 6,000  Level Fort Worth Center
Mon 07:57:28 AM 35.4061 -97.5028 350° North 284 327 6,000 -200 Level Fort Worth Center
Mon 07:57:55 AM 35.4353 -97.5078 352° North 296 341 5,800 -1,400 Descending Fort Worth Center
Mon 07:58:28 AM 35.4875 -97.5106 358° North 293 337 4,600 -1,600 Descending Fort Worth Center
Mon 07:58:55 AM 35.5167 -97.5053 North 296 341 4,200 -590 Descending Fort Worth Center
Mon 07:59:29 AM 35.5606 -97.5106 354° North 263 303 4,000 -200 Descending Fort Worth Center
Mon 07:59:55 AM 35.5731 -97.5283 311° West 276 318 4,000 -100 Level Fort Worth Center
Mon 08:00:29 AM 35.5689 -97.5667 262° West 167 192 3,900 -300 Descending Fort Worth Center
Mon 08:00:55 AM 35.5561 -97.5769 213° Southwest 130 150 3,700 -590 Descending Fort Worth Center
Mon 08:01:30 AM 35.5269 -97.5869 196° South 156 180 3,300 -700 Descending Fort Worth Center
Mon 08:01:55 AM 35.5144 -97.5894 189° South 90 104 3,000 -492 Descending Fort Worth Center
Mon 08:02:31 AM 35.4853 -97.5919 184° South 146 168 2,800 -400 Descending Fort Worth Center
Mon 08:02:55 AM 35.4750 -97.5919 180° South 115 132 2,600 -600 Descending Fort Worth Center
Mon 08:03:31 AM 35.4519 -97.5919 180° South 118 136 2,200 -600 Descending Fort Worth Center
Mon 08:03:55 AM 35.4417 -97.5919 180° South 126 145 2,000 -590 Descending Fort Worth Center
Mon 08:04:32 AM 35.4164 -97.5944 185° South 113 130 1,600 -649 Descending Fort Worth Center

Login

Don't have an account? Register now (free) for customized features, flight alerts, and more!